createdAt,value
2022-07-25T00:01:07.651Z,21.84
2022-07-25T00:03:37.119Z,21.79
2022-07-25T00:06:52.659Z,21.79
2022-07-25T00:09:19.034Z,21.71
2022-07-25T00:11:45.397Z,21.65
2022-07-25T00:14:11.808Z,21.59
2022-07-25T00:16:38.485Z,21.59
2022-07-25T00:19:05.264Z,21.54
2022-07-25T00:21:32.591Z,21.52
2022-07-25T00:23:58.941Z,21.57
2022-07-25T00:26:25.327Z,21.60
2022-07-25T00:28:51.719Z,21.54
2022-07-25T00:31:18.155Z,21.47
2022-07-25T00:33:44.511Z,21.44
2022-07-25T00:36:10.913Z,21.38
2022-07-25T00:38:37.322Z,21.36
2022-07-25T00:41:05.081Z,21.37
2022-07-25T00:43:31.984Z,21.37
2022-07-25T00:45:59.493Z,21.32
2022-07-25T00:48:27.185Z,21.22
2022-07-25T00:50:53.869Z,21.17
2022-07-25T00:53:20.350Z,21.12
2022-07-25T00:55:47.605Z,21.10
2022-07-25T00:58:14.205Z,21.14
2022-07-25T01:00:40.696Z,21.03
2022-07-25T01:03:07.136Z,21.00
2022-07-25T01:05:33.627Z,20.99
2022-07-25T01:08:00.096Z,20.98
2022-07-25T01:10:26.569Z,20.96
2022-07-25T01:12:55.181Z,21.06
2022-07-25T01:15:23.773Z,20.90
2022-07-25T01:17:50.735Z,20.79
2022-07-25T01:20:17.920Z,20.65
2022-07-25T01:22:45.431Z,20.72
2022-07-25T01:25:13.438Z,20.56
2022-07-25T01:27:40.316Z,20.56
2022-07-25T01:30:09.121Z,20.58
2022-07-25T01:32:36.003Z,20.58
2022-07-25T01:35:04.056Z,20.52
2022-07-25T01:37:30.704Z,20.58
2022-07-25T01:39:57.117Z,20.62
2022-07-25T01:42:23.762Z,20.60
2022-07-25T01:44:50.216Z,20.52
2022-07-25T01:47:19.462Z,20.48
2022-07-25T01:49:46.021Z,20.35
2022-07-25T01:52:13.470Z,20.33
2022-07-25T01:54:40.944Z,20.38
2022-07-25T01:57:10.261Z,20.39
2022-07-25T01:59:39.286Z,20.42
2022-07-25T02:02:07.592Z,20.33
2022-07-25T02:04:34.938Z,20.35
2022-07-25T02:07:01.480Z,20.41
2022-07-25T02:09:29.001Z,20.34
2022-07-25T02:11:55.624Z,20.27
2022-07-25T02:14:22.837Z,20.19
2022-07-25T02:16:49.490Z,20.19
2022-07-25T02:19:16.122Z,20.20
2022-07-25T02:21:43.028Z,20.22
2022-07-25T02:24:09.908Z,20.15
2022-07-25T02:26:36.508Z,20.12
2022-07-25T02:29:03.141Z,20.03
2022-07-25T02:31:29.476Z,20.04
2022-07-25T02:33:55.836Z,19.94
2022-07-25T02:36:22.309Z,19.92
2022-07-25T02:38:48.703Z,19.90
2022-07-25T02:41:15.107Z,19.85
2022-07-25T02:43:41.511Z,19.79
2022-07-25T02:46:07.895Z,19.80
2022-07-25T02:48:34.502Z,19.76
2022-07-25T02:51:00.910Z,19.78
2022-07-25T02:53:47.243Z,19.71
2022-07-25T02:56:14.108Z,19.70
2022-07-25T02:58:41.448Z,19.79
2022-07-25T03:01:08.439Z,19.81
2022-07-25T03:03:34.859Z,19.80
2022-07-25T03:06:01.362Z,19.82
2022-07-25T03:08:28.500Z,19.78
2022-07-25T03:10:54.941Z,19.80
2022-07-25T03:13:21.341Z,19.77
2022-07-25T03:15:48.530Z,19.67
2022-07-25T03:18:14.900Z,19.68
2022-07-25T03:20:41.319Z,19.67
2022-07-25T03:23:07.696Z,19.64
2022-07-25T03:25:34.074Z,19.59
2022-07-25T03:28:00.840Z,19.59
2022-07-25T03:30:27.234Z,19.54
2022-07-25T03:32:54.933Z,19.53
2022-07-25T03:35:21.568Z,19.53
2022-07-25T03:37:47.935Z,19.47
2022-07-25T03:40:15.892Z,19.44
2022-07-25T03:42:42.933Z,19.50
2022-07-25T03:45:09.850Z,19.50
2022-07-25T03:47:36.350Z,19.52
2022-07-25T03:50:02.956Z,19.54
2022-07-25T03:52:29.432Z,19.44
2022-07-25T03:54:55.801Z,19.47
2022-07-25T03:57:22.166Z,19.49
2022-07-25T03:59:48.507Z,19.55
2022-07-25T04:02:14.962Z,19.58
2022-07-25T04:04:41.448Z,19.55
2022-07-25T04:07:07.821Z,19.50
2022-07-25T04:09:34.174Z,19.48
2022-07-25T04:12:01.465Z,19.47
2022-07-25T04:14:27.847Z,19.42
2022-07-25T04:16:54.281Z,19.44
2022-07-25T04:19:20.739Z,19.35
2022-07-25T04:21:47.114Z,19.44
2022-07-25T04:24:13.482Z,19.47
2022-07-25T04:26:39.820Z,19.38
2022-07-25T04:29:06.281Z,19.45
2022-07-25T04:31:32.736Z,19.40
2022-07-25T04:33:59.276Z,19.47
2022-07-25T04:36:26.578Z,19.49
2022-07-25T04:38:53.623Z,19.47
2022-07-25T04:41:20.079Z,19.50
2022-07-25T04:43:48.683Z,19.50
2022-07-25T04:46:22.231Z,19.53
2022-07-25T04:48:49.534Z,19.52
2022-07-25T04:51:17.185Z,19.54
2022-07-25T04:53:43.910Z,19.59
2022-07-25T04:56:10.378Z,19.55
2022-07-25T04:58:37.004Z,19.58
2022-07-25T05:01:03.524Z,19.60
2022-07-25T05:03:30.014Z,19.75
2022-07-25T05:05:56.414Z,19.73
2022-07-25T05:08:22.769Z,19.82
2022-07-25T05:10:49.211Z,19.91
2022-07-25T05:13:16.177Z,19.87
2022-07-25T05:15:42.698Z,19.92
2022-07-25T05:18:09.086Z,20.01
2022-07-25T05:20:35.451Z,20.07
2022-07-25T05:23:01.806Z,20.13
2022-07-25T05:25:29.267Z,20.30
2022-07-25T05:27:58.441Z,20.37
2022-07-25T05:30:25.520Z,20.41
2022-07-25T05:32:52.175Z,20.52
2022-07-25T05:35:18.552Z,20.64
2022-07-25T05:37:44.907Z,20.76
2022-07-25T05:40:11.397Z,20.81
2022-07-25T05:42:37.828Z,20.91
2022-07-25T05:45:05.898Z,21.13
2022-07-25T05:47:32.285Z,21.26
2022-07-25T05:49:59.149Z,21.31
2022-07-25T05:52:25.510Z,21.44
2022-07-25T05:54:51.993Z,21.55
2022-07-25T05:57:18.403Z,21.66
2022-07-25T05:59:44.935Z,21.91
2022-07-25T06:02:11.501Z,22.06
2022-07-25T06:04:37.945Z,22.12
2022-07-25T06:07:04.354Z,22.31
2022-07-25T06:09:31.865Z,22.39
2022-07-25T06:12:01.059Z,22.42
2022-07-25T06:14:28.985Z,22.61
2022-07-25T06:16:56.856Z,22.74
2022-07-25T06:19:23.481Z,22.79
2022-07-25T06:21:50.075Z,22.97
2022-07-25T06:24:16.453Z,23.04
2022-07-25T06:26:42.864Z,23.17
2022-07-25T06:29:09.311Z,23.27
2022-07-25T06:31:35.704Z,23.41
2022-07-25T06:34:02.090Z,23.44
2022-07-25T06:36:32.295Z,23.60
2022-07-25T06:38:59.612Z,23.76
2022-07-25T06:41:26.039Z,23.85
2022-07-25T06:43:52.525Z,24.02
2022-07-25T06:46:19.120Z,24.23
2022-07-25T06:48:45.630Z,24.36
2022-07-25T06:51:12.192Z,24.54
2022-07-25T06:53:38.739Z,24.75
2022-07-25T06:56:05.531Z,24.70
2022-07-25T06:58:31.894Z,24.69
2022-07-25T07:01:00.948Z,24.71
2022-07-25T07:03:27.524Z,24.85
2022-07-25T07:05:54.084Z,25.11
2022-07-25T07:08:20.527Z,25.19
2022-07-25T07:10:46.939Z,25.39
2022-07-25T07:13:15.301Z,25.34
2022-07-25T07:15:49.960Z,25.19
2022-07-25T07:18:18.031Z,25.48
2022-07-25T07:20:44.521Z,25.36
2022-07-25T07:23:11.463Z,25.44
2022-07-25T07:25:43.398Z,25.60
2022-07-25T07:28:09.777Z,25.84
2022-07-25T07:31:05.598Z,25.54
2022-07-25T07:33:22.552Z,25.82
2022-07-25T07:35:48.904Z,26.10
2022-07-25T07:38:15.532Z,25.88
2022-07-25T07:40:41.944Z,26.04
2022-07-25T07:43:08.304Z,26.42
2022-07-25T07:45:35.722Z,26.51
2022-07-25T07:48:02.104Z,26.26
2022-07-25T07:50:28.770Z,26.54
2022-07-25T07:52:56.294Z,26.55
2022-07-25T07:55:42.241Z,26.81
2022-07-25T07:58:08.990Z,26.91
2022-07-25T08:00:36.259Z,26.63
2022-07-25T08:03:03.382Z,27.07
2022-07-25T08:05:32.934Z,27.03
2022-07-25T08:08:00.518Z,27.11
2022-07-25T08:10:32.826Z,27.13
2022-07-25T08:12:59.985Z,27.36
2022-07-25T08:15:27.167Z,27.41
2022-07-25T08:17:53.593Z,27.36
2022-07-25T08:20:39.149Z,27.67
2022-07-25T08:23:06.638Z,27.50
2022-07-25T08:25:33.245Z,27.71
2022-07-25T08:27:59.729Z,28.08
2022-07-25T08:30:26.227Z,28.08
2022-07-25T08:32:56.160Z,28.45
2022-07-25T08:35:24.597Z,28.56
2022-07-25T08:37:51.328Z,28.69
2022-07-25T08:40:20.605Z,28.88
2022-07-25T08:42:48.539Z,28.71
2022-07-25T08:45:17.643Z,28.79
2022-07-25T08:47:44.302Z,29.00
2022-07-25T08:50:15.434Z,29.43
2022-07-25T08:52:47.606Z,29.69
2022-07-25T08:55:19.943Z,29.30
2022-07-25T08:57:51.323Z,29.27
2022-07-25T09:00:23.540Z,29.62
2022-07-25T09:02:53.122Z,29.66
2022-07-25T09:05:21.357Z,30.03
2022-07-25T09:07:48.155Z,30.55
2022-07-25T09:10:24.170Z,30.56
2022-07-25T09:12:53.686Z,30.31
2022-07-25T09:15:25.367Z,30.64
2022-07-25T09:17:53.948Z,30.37
2022-07-25T09:20:21.641Z,30.10
2022-07-25T09:22:48.339Z,30.05
2022-07-25T09:25:23.211Z,30.25
2022-07-25T09:27:49.795Z,30.80
2022-07-25T09:30:16.554Z,31.15
2022-07-25T09:32:42.984Z,30.98
2022-07-25T09:35:09.495Z,31.46
2022-07-25T09:37:36.060Z,31.27
2022-07-25T09:40:12.549Z,31.60
2022-07-25T09:42:39.024Z,31.68
2022-07-25T09:45:12.542Z,31.38
2022-07-25T09:47:57.551Z,31.43
2022-07-25T09:50:25.807Z,31.47
2022-07-25T09:52:54.001Z,31.55
2022-07-25T09:55:21.833Z,30.84
2022-07-25T09:57:49.604Z,30.92
2022-07-25T10:00:23.407Z,31.14
2022-07-25T10:02:52.969Z,31.47
2022-07-25T10:05:26.565Z,31.75
2022-07-25T10:07:54.460Z,31.64
2022-07-25T10:10:29.295Z,31.67
2022-07-25T10:13:11.058Z,31.87
2022-07-25T10:15:50.048Z,32.18
2022-07-25T10:18:19.461Z,32.43
2022-07-25T10:20:48.429Z,32.65
2022-07-25T10:23:25.565Z,32.90
2022-07-25T10:26:07.694Z,33.01
2022-07-25T10:28:48.026Z,33.21
2022-07-25T10:31:34.071Z,33.28
2022-07-25T10:34:05.438Z,33.67
2022-07-25T10:36:46.367Z,33.40
2022-07-25T10:39:15.072Z,33.86
2022-07-25T10:41:49.754Z,33.63
2022-07-25T10:44:16.483Z,33.50
2022-07-25T10:46:44.743Z,33.79
2022-07-25T10:49:30.926Z,34.00
2022-07-25T10:52:05.619Z,33.78
2022-07-25T10:54:38.597Z,34.01
2022-07-25T10:57:06.977Z,34.21
2022-07-25T10:59:39.054Z,34.35
2022-07-25T11:02:17.791Z,34.41
2022-07-25T11:04:45.854Z,34.57
2022-07-25T11:07:14.837Z,34.37
2022-07-25T11:09:43.061Z,34.72
2022-07-25T11:12:14.099Z,34.86
2022-07-25T11:14:42.993Z,35.04
2022-07-25T11:17:10.971Z,35.13
2022-07-25T11:19:37.445Z,34.94
2022-07-25T11:22:06.377Z,35.35
2022-07-25T11:24:44.208Z,35.76
2022-07-25T11:27:24.341Z,35.77
2022-07-25T11:29:51.311Z,35.48
2022-07-25T11:32:19.165Z,35.65
2022-07-25T11:34:52.177Z,35.37
2022-07-25T11:37:19.833Z,35.17
2022-07-25T11:39:47.751Z,35.18
2022-07-25T11:42:18.756Z,34.95
2022-07-25T11:44:50.821Z,34.77
2022-07-25T11:47:33.439Z,34.64
2022-07-25T11:50:02.630Z,34.82
2022-07-25T11:52:30.373Z,34.68
2022-07-25T11:55:03.549Z,34.75
2022-07-25T11:57:35.532Z,34.43
2022-07-25T12:00:29.469Z,34.43
2022-07-25T12:03:07.591Z,34.76
2022-07-25T12:05:34.314Z,35.15
2022-07-25T12:08:15.338Z,35.44
2022-07-25T12:10:43.850Z,35.70
2022-07-25T12:13:24.948Z,35.98
2022-07-25T12:15:51.344Z,35.88
2022-07-25T12:18:18.046Z,35.96
2022-07-25T12:20:44.768Z,35.83
2022-07-25T12:23:13.528Z,35.52
2022-07-25T12:25:43.399Z,35.48
2022-07-25T12:28:11.076Z,35.20
2022-07-25T12:30:39.036Z,34.40
2022-07-25T12:33:06.308Z,34.39
2022-07-25T12:35:33.126Z,34.77
2022-07-25T12:37:59.661Z,34.95
2022-07-25T12:40:26.032Z,34.97
2022-07-25T12:42:52.392Z,34.36
2022-07-25T12:45:19.171Z,34.22
2022-07-25T12:47:47.191Z,34.02
2022-07-25T12:50:15.477Z,33.69
2022-07-25T12:52:43.655Z,33.85
2022-07-25T12:55:13.041Z,33.89
2022-07-25T12:57:40.048Z,34.08
2022-07-25T13:00:10.263Z,34.27
2022-07-25T13:02:37.117Z,34.57
2022-07-25T13:05:03.765Z,34.96
2022-07-25T13:07:30.293Z,35.02
2022-07-25T13:09:56.732Z,35.11
2022-07-25T13:12:24.066Z,34.98
2022-07-25T13:14:51.462Z,34.76
2022-07-25T13:17:19.142Z,34.53
2022-07-25T13:19:47.840Z,34.31
2022-07-25T13:22:16.716Z,34.46
2022-07-25T13:24:43.576Z,34.72
2022-07-25T13:27:10.130Z,35.11
2022-07-25T13:29:36.573Z,35.24
2022-07-25T13:32:03.489Z,35.19
2022-07-25T13:34:30.768Z,35.14
2022-07-25T13:36:57.211Z,35.19
2022-07-25T13:39:23.814Z,35.49
2022-07-25T13:41:50.312Z,35.18
2022-07-25T13:44:16.678Z,35.06
2022-07-25T13:46:46.078Z,34.81
2022-07-25T13:49:12.925Z,34.65
2022-07-25T13:51:39.292Z,34.41
2022-07-25T13:54:05.720Z,34.19
2022-07-25T13:56:32.553Z,34.00
2022-07-25T13:58:59.180Z,33.94
2022-07-25T14:01:28.430Z,33.77
2022-07-25T14:03:55.433Z,33.80
2022-07-25T14:06:22.135Z,33.19
2022-07-25T14:08:48.597Z,32.36
2022-07-25T14:11:14.959Z,31.85
2022-07-25T14:13:43.348Z,31.04
2022-07-25T14:16:09.724Z,30.97
2022-07-25T14:18:36.135Z,31.35
2022-07-25T14:21:02.638Z,31.11
2022-07-25T14:23:30.232Z,31.08
2022-07-25T14:25:58.385Z,31.04
2022-07-25T14:28:25.032Z,30.96
2022-07-25T14:30:51.462Z,30.98
2022-07-25T14:33:17.891Z,31.33
2022-07-25T14:35:44.298Z,31.42
2022-07-25T14:38:15.217Z,31.26
2022-07-25T14:40:41.957Z,31.37
2022-07-25T14:43:08.462Z,31.40
2022-07-25T14:45:36.853Z,31.80
2022-07-25T14:48:05.905Z,31.91
2022-07-25T14:50:32.432Z,32.16
2022-07-25T14:52:58.807Z,32.03
2022-07-25T14:55:25.743Z,31.94
2022-07-25T14:57:52.301Z,31.89
2022-07-25T15:00:18.721Z,31.92
2022-07-25T15:02:45.179Z,32.14
2022-07-25T15:05:11.722Z,32.48
2022-07-25T15:07:38.185Z,32.64
2022-07-25T15:10:05.145Z,32.86
2022-07-25T15:12:31.629Z,33.08
2022-07-25T15:14:58.008Z,33.24
2022-07-25T15:17:24.443Z,33.24
2022-07-25T15:19:50.838Z,33.17
2022-07-25T15:22:17.245Z,33.18
2022-07-25T15:25:17.164Z,33.18
2022-07-25T15:27:29.978Z,33.09
2022-07-25T15:29:56.329Z,33.04
2022-07-25T15:32:22.700Z,33.30
2022-07-25T15:34:49.189Z,33.38
2022-07-25T15:37:15.658Z,33.51
2022-07-25T15:39:42.034Z,33.54
2022-07-25T15:42:08.408Z,33.78
2022-07-25T15:44:34.755Z,34.02
2022-07-25T15:47:01.231Z,33.90
2022-07-25T15:49:27.776Z,33.73
2022-07-25T15:51:54.282Z,33.76
2022-07-25T15:54:22.088Z,33.57
2022-07-25T15:56:50.464Z,33.51
2022-07-25T15:59:16.829Z,33.35
2022-07-25T16:01:43.453Z,33.11
2022-07-25T16:04:10.874Z,33.08
2022-07-25T16:06:37.415Z,33.28
2022-07-25T16:09:04.281Z,33.20
2022-07-25T16:11:31.153Z,32.82
2022-07-25T16:13:57.505Z,32.83
2022-07-25T16:16:25.538Z,32.80
2022-07-25T16:18:52.119Z,32.69
2022-07-25T16:21:18.630Z,32.70
2022-07-25T16:23:45.757Z,32.60
2022-07-25T16:26:13.198Z,32.51
2022-07-25T16:28:40.464Z,32.36
2022-07-25T16:31:07.089Z,32.19
2022-07-25T16:33:33.540Z,32.10
2022-07-25T16:35:59.928Z,32.01
2022-07-25T16:38:27.385Z,32.06
2022-07-25T16:40:53.745Z,31.94
2022-07-25T16:43:20.947Z,32.03
2022-07-25T16:45:47.496Z,31.87
2022-07-25T16:48:13.938Z,31.96
2022-07-25T16:50:40.884Z,31.83
2022-07-25T16:53:07.492Z,31.70
2022-07-25T16:55:33.897Z,31.94
2022-07-25T16:58:00.399Z,31.87
2022-07-25T17:00:26.893Z,31.61
2022-07-25T17:02:53.253Z,31.59
2022-07-25T17:05:19.771Z,31.41
2022-07-25T17:07:46.734Z,31.38
2022-07-25T17:10:13.153Z,31.43
2022-07-25T17:12:39.513Z,31.43
2022-07-25T17:15:06.945Z,31.34
2022-07-25T17:17:34.137Z,31.27
2022-07-25T17:20:00.569Z,31.27
2022-07-25T17:22:27.079Z,31.08
2022-07-25T17:24:53.439Z,31.06
2022-07-25T17:27:19.860Z,30.97
2022-07-25T17:29:46.254Z,30.75
2022-07-25T17:32:12.728Z,30.60
2022-07-25T17:34:39.089Z,30.59
2022-07-25T17:37:06.477Z,30.50
2022-07-25T17:39:34.283Z,30.21
2022-07-25T17:42:01.206Z,30.20
2022-07-25T17:44:27.608Z,30.13
2022-07-25T17:46:55.398Z,30.05
2022-07-25T17:49:22.043Z,30.00
2022-07-25T17:51:48.544Z,29.89
2022-07-25T17:54:14.965Z,29.92
2022-07-25T17:56:42.169Z,29.77
2022-07-25T17:59:08.764Z,29.66
2022-07-25T18:01:35.557Z,29.60
2022-07-25T18:04:02.029Z,29.49
2022-07-25T18:06:30.012Z,29.34
2022-07-25T18:08:57.031Z,29.14
2022-07-25T18:11:23.418Z,29.20
2022-07-25T18:13:49.839Z,29.16
2022-07-25T18:16:16.326Z,29.12
2022-07-25T18:18:42.816Z,28.94
2022-07-25T18:21:09.187Z,28.77
2022-07-25T18:23:35.604Z,28.71
2022-07-25T18:26:02.025Z,28.70
2022-07-25T18:28:28.645Z,28.71
2022-07-25T18:30:55.617Z,28.55
2022-07-25T18:33:22.041Z,28.44
2022-07-25T18:35:51.199Z,28.30
2022-07-25T18:38:17.907Z,28.17
2022-07-25T18:40:44.401Z,28.26
2022-07-25T18:43:11.685Z,28.24
2022-07-25T18:45:38.291Z,28.09
2022-07-25T18:48:06.416Z,28.03
2022-07-25T18:50:32.807Z,27.92
2022-07-25T18:52:59.621Z,27.82
2022-07-25T18:55:26.082Z,27.77
2022-07-25T18:57:52.516Z,27.67
2022-07-25T19:00:19.197Z,27.47
2022-07-25T19:02:45.707Z,27.47
2022-07-25T19:05:12.226Z,27.40
2022-07-25T19:07:39.684Z,27.37
2022-07-25T19:10:06.505Z,27.18
2022-07-25T19:12:32.892Z,27.23
2022-07-25T19:14:59.276Z,27.08
2022-07-25T19:17:25.687Z,27.02
2022-07-25T19:19:52.750Z,26.93
2022-07-25T19:22:19.195Z,26.99
2022-07-25T19:24:45.553Z,26.91
2022-07-25T19:27:12.347Z,26.87
2022-07-25T19:29:38.905Z,26.89
2022-07-25T19:32:06.933Z,26.62
2022-07-25T19:34:33.429Z,26.57
2022-07-25T19:36:59.989Z,26.57
2022-07-25T19:39:26.869Z,26.54
2022-07-25T19:41:53.851Z,26.62
2022-07-25T19:44:20.367Z,26.62
2022-07-25T19:46:48.584Z,26.59
2022-07-25T19:49:15.352Z,26.38
2022-07-25T19:51:42.033Z,26.29
2022-07-25T19:54:09.626Z,26.31
2022-07-25T19:56:36.236Z,26.36
2022-07-25T19:59:03.072Z,26.30
2022-07-25T20:01:31.463Z,26.34
2022-07-25T20:03:57.945Z,26.31
2022-07-25T20:06:24.716Z,26.32
2022-07-25T20:08:51.363Z,26.08
2022-07-25T20:11:17.909Z,26.02
2022-07-25T20:13:44.309Z,25.97
2022-07-25T20:16:11.080Z,26.01
2022-07-25T20:18:37.602Z,26.07
2022-07-25T20:21:04.689Z,25.86
2022-07-25T20:23:31.227Z,25.80
2022-07-25T20:26:00.546Z,25.71
2022-07-25T20:28:26.983Z,25.64
2022-07-25T20:30:53.945Z,25.64
2022-07-25T20:33:20.529Z,25.57
2022-07-25T20:35:47.296Z,25.51
2022-07-25T20:38:13.656Z,25.53
2022-07-25T20:40:46.333Z,25.53
2022-07-25T20:43:15.212Z,25.46
2022-07-25T20:45:41.705Z,25.37
2022-07-25T20:48:08.090Z,25.33
2022-07-25T20:50:37.303Z,25.27
2022-07-25T20:53:05.169Z,25.28
2022-07-25T20:55:31.967Z,25.21
2022-07-25T20:57:59.106Z,25.18
2022-07-25T21:00:27.613Z,25.13
2022-07-25T21:02:54.891Z,25.10
2022-07-25T21:05:22.409Z,25.05
2022-07-25T21:07:49.030Z,25.07
2022-07-25T21:10:15.436Z,24.99
2022-07-25T21:12:41.939Z,25.06
2022-07-25T21:15:09.121Z,24.98
2022-07-25T21:17:35.589Z,24.92
2022-07-25T21:20:02.332Z,24.84
2022-07-25T21:22:28.679Z,24.90
2022-07-25T21:24:55.315Z,24.89
2022-07-25T21:27:21.822Z,24.90
2022-07-25T21:29:48.257Z,24.90
2022-07-25T21:32:15.136Z,24.78
2022-07-25T21:34:44.118Z,24.70
2022-07-25T21:37:10.548Z,24.71
2022-07-25T21:39:37.246Z,24.64
2022-07-25T21:42:05.409Z,24.63
2022-07-25T21:44:32.056Z,24.61
2022-07-25T21:46:58.405Z,24.56
2022-07-25T21:49:43.270Z,24.61
2022-07-25T21:52:13.626Z,24.47
2022-07-25T21:54:41.780Z,24.48
2022-07-25T21:57:13.122Z,24.45
2022-07-25T21:59:41.788Z,24.42
2022-07-25T22:02:08.167Z,24.37
2022-07-25T22:04:34.600Z,24.30
2022-07-25T22:07:01.029Z,24.20
2022-07-25T22:09:27.457Z,24.22
2022-07-25T22:11:55.508Z,24.18
2022-07-25T22:14:22.086Z,24.21
2022-07-25T22:16:48.700Z,24.23
2022-07-25T22:19:15.113Z,24.11
2022-07-25T22:21:41.744Z,24.00
2022-07-25T22:24:09.280Z,24.01
2022-07-25T22:26:35.758Z,23.89
2022-07-25T22:29:02.225Z,23.86
2022-07-25T22:31:29.036Z,23.98
2022-07-25T22:33:55.529Z,24.17
2022-07-25T22:36:22.118Z,23.98
2022-07-25T22:38:49.897Z,23.98
2022-07-25T22:41:16.436Z,23.70
2022-07-25T22:43:56.746Z,23.63
2022-07-25T22:46:26.250Z,23.69
2022-07-25T22:48:53.463Z,23.78
2022-07-25T22:51:20.027Z,23.82
2022-07-25T22:53:46.398Z,23.56
2022-07-25T22:56:12.824Z,23.69
2022-07-25T22:58:39.694Z,23.52
2022-07-25T23:01:06.345Z,23.50
2022-07-25T23:03:33.408Z,23.37
2022-07-25T23:06:00.337Z,23.20
2022-07-25T23:08:26.720Z,23.13
2022-07-25T23:10:53.176Z,23.10
2022-07-25T23:13:19.782Z,23.12
2022-07-25T23:15:50.379Z,23.18
2022-07-25T23:18:19.555Z,23.18
2022-07-25T23:20:46.201Z,23.17
2022-07-25T23:23:13.584Z,23.28
2022-07-25T23:25:40.244Z,23.13
2022-07-25T23:28:06.602Z,22.99
2022-07-25T23:30:36.704Z,23.05
2022-07-25T23:33:06.678Z,23.04
2022-07-25T23:35:33.277Z,23.06
2022-07-25T23:37:59.637Z,23.07
2022-07-25T23:40:26.572Z,23.01
2022-07-25T23:42:53.112Z,22.89
2022-07-25T23:45:19.637Z,22.92
2022-07-25T23:47:46.257Z,22.94
2022-07-25T23:50:12.699Z,22.87
2022-07-25T23:52:39.165Z,22.80
2022-07-25T23:55:06.612Z,22.70
2022-07-25T23:57:33.209Z,22.70
2022-07-25T23:59:59.557Z,22.72
